sensor_id;sensor_type;location;lat;lon;timestamp;pressure;altitude;pressure_sealevel;temperature;humidity
39083;BME280;24834;44.444;26.098;2023-12-20T00:03:16;100811.22;;;7.20;
39083;BME280;24834;44.444;26.098;2023-12-20T00:09:19;100802.28;;;7.38;
39083;BME280;24834;44.444;26.098;2023-12-20T00:15:21;100794.09;;;7.29;
39083;BME280;24834;44.444;26.098;2023-12-20T00:21:25;100801.31;;;7.44;
39083;BME280;24834;44.444;26.098;2023-12-20T00:27:27;100791.72;;;7.28;
39083;BME280;24834;44.444;26.098;2023-12-20T00:33:29;100785.03;;;7.15;
39083;BME280;24834;44.444;26.098;2023-12-20T00:39:32;100777.97;;;7.16;
39083;BME280;24834;44.444;26.098;2023-12-20T00:45:34;100759.19;;;7.19;
39083;BME280;24834;44.444;26.098;2023-12-20T00:51:37;100754.09;;;7.29;
39083;BME280;24834;44.444;26.098;2023-12-20T00:57:41;100751.03;;;7.15;
39083;BME280;24834;44.444;26.098;2023-12-20T01:03:55;100747.47;;;6.83;
39083;BME280;24834;44.444;26.098;2023-12-20T01:09:59;100747.91;;;6.75;
39083;BME280;24834;44.444;26.098;2023-12-20T01:16:01;100735.53;;;6.87;
39083;BME280;24834;44.444;26.098;2023-12-20T01:22:04;100717.88;;;6.77;
39083;BME280;24834;44.444;26.098;2023-12-20T01:28:10;100718.84;;;6.71;
39083;BME280;24834;44.444;26.098;2023-12-20T01:34:12;100702.09;;;6.67;
39083;BME280;24834;44.444;26.098;2023-12-20T01:40:16;100716.56;;;6.96;
39083;BME280;24834;44.444;26.098;2023-12-20T01:46:20;100704.34;;;7.02;
39083;BME280;24834;44.444;26.098;2023-12-20T01:52:23;100695.84;;;6.90;
39083;BME280;24834;44.444;26.098;2023-12-20T01:58:27;100694.38;;;6.99;
39083;BME280;24834;44.444;26.098;2023-12-20T02:04:29;100692.56;;;6.99;
39083;BME280;24834;44.444;26.098;2023-12-20T02:10:32;100681.06;;;6.57;
39083;BME280;24834;44.444;26.098;2023-12-20T02:16:36;100668.63;;;6.26;
39083;BME280;24834;44.444;26.098;2023-12-20T02:22:38;100665.03;;;6.32;
39083;BME280;24834;44.444;26.098;2023-12-20T02:28:43;100652.31;;;6.02;
39083;BME280;24834;44.444;26.098;2023-12-20T02:34:48;100640.78;;;6.15;
39083;BME280;24834;44.444;26.098;2023-12-20T02:40:51;100632.34;;;6.29;
39083;BME280;24834;44.444;26.098;2023-12-20T02:46:54;100629.34;;;6.37;
39083;BME280;24834;44.444;26.098;2023-12-20T02:52:57;100615.44;;;6.32;
39083;BME280;24834;44.444;26.098;2023-12-20T02:59:02;100599.94;;;6.25;
39083;BME280;24834;44.444;26.098;2023-12-20T03:05:08;100600.56;;;6.16;
39083;BME280;24834;44.444;26.098;2023-12-20T03:11:11;100585.53;;;6.23;
39083;BME280;24834;44.444;26.098;2023-12-20T03:17:14;100576.50;;;6.30;
39083;BME280;24834;44.444;26.098;2023-12-20T03:23:18;100574.13;;;6.29;
39083;BME280;24834;44.444;26.098;2023-12-20T03:29:20;100568.00;;;6.18;
39083;BME280;24834;44.444;26.098;2023-12-20T03:35:22;100557.56;;;6.40;
39083;BME280;24834;44.444;26.098;2023-12-20T03:41:25;100558.34;;;6.19;
39083;BME280;24834;44.444;26.098;2023-12-20T03:47:27;100555.25;;;6.22;
39083;BME280;24834;44.444;26.098;2023-12-20T03:53:30;100553.41;;;6.22;
39083;BME280;24834;44.444;26.098;2023-12-20T03:59:36;100536.09;;;6.16;
39083;BME280;24834;44.444;26.098;2023-12-20T04:05:40;100544.28;;;6.20;
39083;BME280;24834;44.444;26.098;2023-12-20T04:11:43;100545.34;;;6.24;
39083;BME280;24834;44.444;26.098;2023-12-20T04:17:46;100537.47;;;6.19;
39083;BME280;24834;44.444;26.098;2023-12-20T04:23:49;100534.25;;;6.33;
39083;BME280;24834;44.444;26.098;2023-12-20T04:29:51;100523.88;;;6.38;
39083;BME280;24834;44.444;26.098;2023-12-20T04:35:53;100524.50;;;6.29;
39083;BME280;24834;44.444;26.098;2023-12-20T04:41:55;100530.25;;;6.26;
39083;BME280;24834;44.444;26.098;2023-12-20T04:47:59;100531.88;;;6.32;
39083;BME280;24834;44.444;26.098;2023-12-20T04:54:03;100528.25;;;6.33;
39083;BME280;24834;44.444;26.098;2023-12-20T05:00:06;100520.25;;;6.39;
39083;BME280;24834;44.444;26.098;2023-12-20T05:06:11;100508.84;;;6.29;
39083;BME280;24834;44.444;26.098;2023-12-20T05:12:14;100505.53;;;6.12;
